Time;durP1;ratioP1;P1;durP2;ratioP2;P2;SDS_P1;SDS_P2;PMS_P1;PMS_P2;Temp;Humidity;BMP_temperature;BMP_pressure;BME280_temperature;BME280_humidity;BME280_pressure;Samples;Min_cycle;Max_cycle;Signal;HPM_P1;HPM_P2
2022/10/22 00:02:20;;;;;;;15.95;2.58;;;;;;;;;;5074190;28;20484;-71
2022/10/22 00:04:48;;;;;;;16.20;2.40;;;;;;;;;;5074467;28;20057;-71
2022/10/22 00:07:15;;;;;;;11.63;2.50;;;;;;;;;;5074177;28;20122;-71
2022/10/22 00:09:41;;;;;;;11.85;2.53;;;;;;;;;;5074414;28;20052;-71
2022/10/22 00:12:07;;;;;;;14.73;2.22;;;;;;;;;;5074023;28;20399;-71
2022/10/22 00:14:34;;;;;;;10.63;2.08;;;;;;;;;;5074403;28;20048;-71
2022/10/22 00:17:00;;;;;;;13.60;2.75;;;;;;;;;;5074083;28;20510;-71
2022/10/22 00:19:27;;;;;;;12.45;2.33;;;;;;;;;;5073930;28;20048;-71
2022/10/22 00:21:53;;;;;;;14.05;2.90;;;;;;;;;;5074093;28;20487;-71
2022/10/22 00:24:20;;;;;;;11.80;2.83;;;;;;;;;;5074031;28;20123;-71
2022/10/22 00:26:46;;;;;;;13.50;2.90;;;;;;;;;;5073853;28;20049;-71
2022/10/22 00:29:12;;;;;;;13.18;2.72;;;;;;;;;;5074008;28;20492;-71
2022/10/22 00:31:39;;;;;;;11.38;2.67;;;;;;;;;;5073672;28;20059;-71
2022/10/22 00:34:05;;;;;;;9.30;2.15;;;;;;;;;;5073990;28;20054;-71
2022/10/22 00:36:31;;;;;;;12.80;2.08;;;;;;;;;;5073672;28;20048;-71
2022/10/22 00:38:58;;;;;;;9.57;2.00;;;;;;;;;;5073661;28;20052;-71
2022/10/22 00:41:24;;;;;;;5.38;1.20;;;;;;;;;;5073873;28;20071;-71
2022/10/22 00:43:53;;;;;;;7.72;1.40;;;;;;;;;;5073620;28;20067;-71
2022/10/22 00:46:20;;;;;;;9.02;1.90;;;;;;;;;;5073910;28;20117;-71
2022/10/22 00:48:46;;;;;;;9.30;1.35;;;;;;;;;;5073757;28;20431;-71
2022/10/22 00:51:12;;;;;;;8.38;1.20;;;;;;;;;;5073685;28;20053;-71
2022/10/22 00:53:47;;;;;;;7.93;1.25;;;;;;;;;;5072328;28;20381;-71
2022/10/22 00:56:14;;;;;;;10.43;1.73;;;;;;;;;;5073388;28;20056;-71
2022/10/22 00:58:43;;;;;;;8.20;1.55;;;;;;;;;;5073460;28;20376;-71
2022/10/22 01:01:12;;;;;;;4.95;1.40;;;;;;;;;;5073302;28;20055;-71
2022/10/22 01:03:39;;;;;;;11.63;1.73;;;;;;;;;;5073184;28;20048;-71
2022/10/22 01:06:06;;;;;;;5.55;1.05;;;;;;;;;;5073083;28;20052;-71
2022/10/22 01:08:49;;;;;;;7.85;1.65;;;;;;;;;;5073107;28;20480;-71
2022/10/22 01:11:34;;;;;;;5.30;0.95;;;;;;;;;;5061758;28;20049;-71
2022/10/22 01:14:03;;;;;;;7.10;1.75;;;;;;;;;;5069333;28;20085;-71
2022/10/22 01:16:32;;;;;;;7.45;1.25;;;;;;;;;;5072961;28;20054;-71
2022/10/22 01:19:17;;;;;;;4.95;0.98;;;;;;;;;;5072890;28;20048;-71
2022/10/22 01:21:48;;;;;;;12.13;1.70;;;;;;;;;;5073188;28;20044;-71
2022/10/22 01:24:20;;;;;;;7.05;1.45;;;;;;;;;;5072916;28;20136;-71
2022/10/22 01:27:08;;;;;;;8.35;1.13;;;;;;;;;;5072752;28;20444;-71
2022/10/22 01:29:37;;;;;;;7.05;1.20;;;;;;;;;;5072680;28;20044;-71
2022/10/22 01:32:07;;;;;;;5.70;1.13;;;;;;;;;;5071872;28;20048;-71
2022/10/22 01:34:35;;;;;;;9.20;2.28;;;;;;;;;;5071736;28;20062;-71
2022/10/22 01:37:02;;;;;;;5.32;0.80;;;;;;;;;;5072526;28;20052;-71
2022/10/22 01:39:29;;;;;;;7.85;1.50;;;;;;;;;;5072371;28;20048;-71
2022/10/22 01:41:56;;;;;;;5.25;1.08;;;;;;;;;;5072664;28;20052;-71
2022/10/22 01:44:25;;;;;;;6.68;1.02;;;;;;;;;;5072604;28;20403;-71
2022/10/22 01:46:55;;;;;;;4.85;0.82;;;;;;;;;;5072431;28;20049;-71
2022/10/22 01:49:42;;;;;;;9.48;1.30;;;;;;;;;;5072331;28;20064;-71
2022/10/22 01:52:20;;;;;;;8.20;1.40;;;;;;;;;;5071951;28;20048;-71
2022/10/22 01:54:51;;;;;;;9.23;1.08;;;;;;;;;;5072642;28;20411;-71
2022/10/22 01:57:27;;;;;;;7.40;1.20;;;;;;;;;;5072301;28;20041;-70
2022/10/22 01:59:56;;;;;;;6.68;1.50;;;;;;;;;;5072419;28;20040;-70
2022/10/22 02:02:22;;;;;;;5.93;0.70;;;;;;;;;;5072272;28;20056;-70
2022/10/22 02:04:52;;;;;;;6.45;1.08;;;;;;;;;;5072552;28;20067;-70
2022/10/22 02:07:20;;;;;;;10.13;1.00;;;;;;;;;;5070964;28;20059;-70
2022/10/22 02:09:48;;;;;;;5.10;1.50;;;;;;;;;;5071965;28;20515;-70
2022/10/22 02:12:15;;;;;;;4.38;1.00;;;;;;;;;;5071820;28;20052;-70
2022/10/22 02:14:42;;;;;;;9.45;1.08;;;;;;;;;;5072225;28;20388;-70
2022/10/22 02:17:12;;;;;;;6.65;0.98;;;;;;;;;;5071817;28;20512;-70
2022/10/22 02:19:41;;;;;;;10.23;1.20;;;;;;;;;;5071969;28;20047;-70
2022/10/22 02:22:08;;;;;;;4.88;0.73;;;;;;;;;;5071519;28;20053;-71
2022/10/22 02:24:35;;;;;;;8.20;1.07;;;;;;;;;;5071561;28;20056;-71
2022/10/22 02:27:16;;;;;;;5.82;1.40;;;;;;;;;;5072089;28;20403;-71
2022/10/22 02:29:54;;;;;;;5.30;1.00;;;;;;;;;;5069569;28;20052;-70
2022/10/22 02:32:25;;;;;;;9.10;1.02;;;;;;;;;;5068838;28;20075;-71
2022/10/22 02:34:52;;;;;;;5.00;1.08;;;;;;;;;;5071747;28;20049;-70
2022/10/22 02:37:19;;;;;;;6.07;0.77;;;;;;;;;;5071750;28;20048;-71
2022/10/22 02:39:46;;;;;;;7.13;1.42;;;;;;;;;;5071544;28;20051;-70
2022/10/22 02:42:13;;;;;;;6.60;1.17;;;;;;;;;;5071846;28;20056;-71
2022/10/22 02:44:39;;;;;;;9.27;1.67;;;;;;;;;;5071597;28;20285;-71
2022/10/22 02:47:05;;;;;;;10.75;0.95;;;;;;;;;;5071631;28;20048;-71
2022/10/22 02:49:32;;;;;;;8.82;1.38;;;;;;;;;;5071854;28;20048;-71
2022/10/22 02:51:58;;;;;;;7.63;0.88;;;;;;;;;;5071432;28;20059;-71
2022/10/22 02:54:25;;;;;;;7.20;1.67;;;;;;;;;;5070137;28;20055;-70
2022/10/22 02:56:51;;;;;;;10.13;1.42;;;;;;;;;;5071762;28;20389;-70
2022/10/22 02:59:17;;;;;;;7.10;1.30;;;;;;;;;;5071338;28;20524;-70
2022/10/22 03:01:44;;;;;;;7.85;1.42;;;;;;;;;;5071506;28;20056;-71
2022/10/22 03:04:10;;;;;;;10.07;1.27;;;;;;;;;;5071455;28;20387;-70
2022/10/22 03:06:36;;;;;;;5.60;1.30;;;;;;;;;;5071432;28;20053;-70
2022/10/22 03:09:03;;;;;;;9.35;1.65;;;;;;;;;;5071362;28;20053;-70
2022/10/22 03:11:29;;;;;;;9.77;1.10;;;;;;;;;;5071268;28;20480;-71
2022/10/22 03:13:55;;;;;;;8.98;1.35;;;;;;;;;;5070067;28;20048;-70
2022/10/22 03:16:22;;;;;;;7.07;1.25;;;;;;;;;;5071373;28;20040;-70
2022/10/22 03:18:48;;;;;;;9.43;1.70;;;;;;;;;;5071380;28;20055;-70
2022/10/22 03:21:27;;;;;;;14.60;2.22;;;;;;;;;;5071445;28;20084;-72
2022/10/22 03:23:53;;;;;;;10.63;1.60;;;;;;;;;;5071220;28;20059;-70
2022/10/22 03:26:20;;;;;;;9.35;1.42;;;;;;;;;;5071361;28;20055;-70
2022/10/22 03:28:47;;;;;;;11.07;1.50;;;;;;;;;;5071495;28;20044;-70
2022/10/22 03:31:13;;;;;;;7.80;1.57;;;;;;;;;;5071174;28;20061;-72
2022/10/22 03:33:40;;;;;;;5.40;1.15;;;;;;;;;;5071050;28;20044;-70
2022/10/22 03:36:07;;;;;;;10.15;1.83;;;;;;;;;;5073815;28;20048;-70
2022/10/22 03:38:34;;;;;;;8.27;1.53;;;;;;;;;;5074706;28;20491;-71
2022/10/22 03:41:01;;;;;;;11.18;1.70;;;;;;;;;;5073506;28;20479;-72
2022/10/22 03:43:28;;;;;;;10.48;1.40;;;;;;;;;;5074717;28;20052;-72
2022/10/22 03:45:54;;;;;;;11.18;1.65;;;;;;;;;;5074977;28;20055;-72
2022/10/22 03:48:20;;;;;;;7.82;1.10;;;;;;;;;;5074934;28;20052;-72
2022/10/22 03:50:47;;;;;;;10.63;1.52;;;;;;;;;;5074845;28;20048;-72
2022/10/22 03:53:13;;;;;;;11.75;1.70;;;;;;;;;;5074468;28;20051;-72
2022/10/22 03:55:39;;;;;;;8.15;1.48;;;;;;;;;;5074618;28;20051;-72
2022/10/22 03:58:06;;;;;;;6.85;1.25;;;;;;;;;;5074457;28;20059;-72
2022/10/22 04:00:34;;;;;;;11.82;1.65;;;;;;;;;;5074257;28;20510;-72
2022/10/22 04:03:00;;;;;;;9.20;1.52;;;;;;;;;;5073501;28;20048;-72
2022/10/22 04:05:26;;;;;;;11.35;1.65;;;;;;;;;;5074279;28;20061;-72
2022/10/22 04:07:53;;;;;;;9.18;1.35;;;;;;;;;;5074581;28;20060;-72
2022/10/22 04:10:19;;;;;;;10.73;1.70;;;;;;;;;;5074580;28;20074;-72
2022/10/22 04:12:47;;;;;;;13.18;1.95;;;;;;;;;;5074242;28;20044;-72
2022/10/22 04:15:13;;;;;;;11.77;1.88;;;;;;;;;;5074211;28;20048;-72
2022/10/22 04:17:39;;;;;;;10.43;1.63;;;;;;;;;;5072909;28;20050;-72
2022/10/22 04:20:06;;;;;;;11.50;1.85;;;;;;;;;;5074088;28;20055;-73
2022/10/22 04:22:33;;;;;;;13.60;1.73;;;;;;;;;;5074414;28;20055;-72
2022/10/22 04:25:00;;;;;;;9.63;1.60;;;;;;;;;;5073039;28;20048;-72
2022/10/22 04:27:30;;;;;;;16.00;1.52;;;;;;;;;;5073935;28;20289;-72
2022/10/22 04:29:57;;;;;;;10.25;2.85;;;;;;;;;;5074154;28;20439;-72
2022/10/22 04:32:24;;;;;;;10.50;1.85;;;;;;;;;;5074223;28;20045;-70
2022/10/22 04:34:50;;;;;;;21.35;2.38;;;;;;;;;;5074128;28;20041;-70
2022/10/22 04:37:17;;;;;;;13.52;2.10;;;;;;;;;;5074012;28;20048;-70
2022/10/22 04:39:43;;;;;;;16.15;2.42;;;;;;;;;;5073601;28;20496;-70
2022/10/22 04:42:10;;;;;;;14.90;2.40;;;;;;;;;;5072292;28;20067;-69
2022/10/22 04:44:36;;;;;;;10.32;1.92;;;;;;;;;;5073600;28;20496;-69
2022/10/22 04:47:03;;;;;;;16.00;2.33;;;;;;;;;;5073066;28;20048;-70
2022/10/22 04:49:29;;;;;;;11.55;3.17;;;;;;;;;;5072611;28;20058;-70
2022/10/22 04:51:55;;;;;;;11.13;2.75;;;;;;;;;;5072621;28;20408;-70
2022/10/22 04:54:22;;;;;;;18.67;2.65;;;;;;;;;;5072400;28;20045;-70
2022/10/22 04:56:48;;;;;;;10.48;2.10;;;;;;;;;;5073398;28;20498;-70
2022/10/22 04:59:15;;;;;;;16.73;2.13;;;;;;;;;;5072060;28;20041;-70
2022/10/22 05:01:42;;;;;;;18.00;2.40;;;;;;;;;;5073241;28;20041;-70
2022/10/22 05:04:13;;;;;;;14.13;2.25;;;;;;;;;;5073430;28;20071;-70
2022/10/22 05:06:40;;;;;;;19.25;2.47;;;;;;;;;;5073293;28;20052;-70
2022/10/22 05:09:07;;;;;;;17.00;2.72;;;;;;;;;;5073350;28;20404;-70
2022/10/22 05:11:35;;;;;;;11.70;2.75;;;;;;;;;;5073160;28;20044;-69
2022/10/22 05:14:03;;;;;;;16.50;3.08;;;;;;;;;;5073025;28;20070;-70
2022/10/22 05:16:29;;;;;;;11.82;2.03;;;;;;;;;;5073284;28;20059;-70
2022/10/22 05:18:57;;;;;;;15.17;2.57;;;;;;;;;;5073293;28;20046;-70
2022/10/22 05:21:23;;;;;;;17.33;2.13;;;;;;;;;;5073119;28;20040;-70
2022/10/22 05:23:50;;;;;;;14.20;2.28;;;;;;;;;;5073511;28;20061;-70
2022/10/22 05:26:18;;;;;;;12.75;1.90;;;;;;;;;;5073036;28;20515;-70
2022/10/22 05:28:45;;;;;;;12.95;2.08;;;;;;;;;;5072708;28;20087;-70
2022/10/22 05:31:12;;;;;;;14.43;2.17;;;;;;;;;;5072905;28;20049;-70
2022/10/22 05:33:39;;;;;;;11.70;1.80;;;;;;;;;;5072591;28;20041;-70
2022/10/22 05:36:06;;;;;;;11.50;2.47;;;;;;;;;;5072584;28;20080;-70
2022/10/22 05:38:33;;;;;;;12.32;2.28;;;;;;;;;;5072444;28;20051;-70
2022/10/22 05:41:00;;;;;;;17.15;3.05;;;;;;;;;;5071334;28;20052;-70
2022/10/22 05:43:27;;;;;;;14.10;1.95;;;;;;;;;;5072398;28;20132;-70
2022/10/22 05:45:54;;;;;;;13.50;2.42;;;;;;;;;;5071534;28;20063;-70
2022/10/22 05:48:20;;;;;;;19.58;2.47;;;;;;;;;;5072775;28;20414;-70
2022/10/22 05:50:49;;;;;;;15.55;2.45;;;;;;;;;;5072579;28;20056;-70
2022/10/22 05:53:18;;;;;;;12.18;2.40;;;;;;;;;;5072267;28;20045;-70
2022/10/22 05:55:45;;;;;;;19.48;2.33;;;;;;;;;;5072110;28;20505;-71
2022/10/22 05:58:12;;;;;;;14.93;2.33;;;;;;;;;;5071637;28;20048;-71
2022/10/22 06:00:38;;;;;;;16.00;2.60;;;;;;;;;;5071965;28;20053;-71
2022/10/22 06:03:05;;;;;;;13.35;2.60;;;;;;;;;;5072426;28;20414;-71
2022/10/22 06:05:35;;;;;;;17.70;2.92;;;;;;;;;;5071084;28;20051;-70
2022/10/22 06:08:01;;;;;;;12.18;1.90;;;;;;;;;;5071987;28;20055;-70
2022/10/22 06:10:28;;;;;;;14.80;2.25;;;;;;;;;;5072163;28;20059;-70
2022/10/22 06:12:54;;;;;;;17.85;2.40;;;;;;;;;;5071782;28;20044;-70
2022/10/22 06:15:21;;;;;;;12.98;2.20;;;;;;;;;;5072162;28;20048;-70
2022/10/22 06:17:47;;;;;;;14.02;2.28;;;;;;;;;;5070874;28;20404;-70
2022/10/22 06:20:14;;;;;;;17.30;2.78;;;;;;;;;;5071891;28;20484;-70
2022/10/22 06:22:40;;;;;;;16.23;2.60;;;;;;;;;;5072217;28;20062;-70
2022/10/22 06:25:07;;;;;;;15.55;2.67;;;;;;;;;;5072008;28;20058;-70
2022/10/22 06:27:33;;;;;;;18.05;2.50;;;;;;;;;;5072090;28;20056;-70
2022/10/22 06:30:00;;;;;;;20.65;3.13;;;;;;;;;;5071873;28;20059;-70
2022/10/22 06:32:26;;;;;;;18.80;2.58;;;;;;;;;;5071748;28;20048;-70
2022/10/22 06:34:52;;;;;;;18.02;2.42;;;;;;;;;;5071670;28;20058;-70
2022/10/22 06:37:19;;;;;;;17.88;2.58;;;;;;;;;;5070577;28;20058;-71
2022/10/22 06:39:45;;;;;;;14.48;2.55;;;;;;;;;;5071657;28;20095;-70
2022/10/22 06:42:12;;;;;;;15.02;2.13;;;;;;;;;;5071764;28;20056;-71
2022/10/22 06:44:38;;;;;;;17.42;2.42;;;;;;;;;;5071945;28;20047;-71
2022/10/22 06:47:04;;;;;;;19.23;2.47;;;;;;;;;;5071442;28;20056;-71
2022/10/22 06:49:31;;;;;;;16.52;2.35;;;;;;;;;;5071816;28;20053;-71
2022/10/22 06:51:57;;;;;;;24.08;3.13;;;;;;;;;;5071753;28;20044;-70
2022/10/22 06:54:24;;;;;;;13.43;2.30;;;;;;;;;;5071626;28;20059;-73
2022/10/22 06:56:50;;;;;;;15.95;2.67;;;;;;;;;;5069601;28;20052;-74
2022/10/22 06:59:16;;;;;;;16.90;2.58;;;;;;;;;;5064138;28;20365;-73
2022/10/22 07:01:43;;;;;;;22.08;2.95;;;;;;;;;;5071440;28;20056;-75
2022/10/22 07:04:09;;;;;;;19.67;3.03;;;;;;;;;;5070823;28;20087;-73
2022/10/22 07:06:36;;;;;;;21.13;2.80;;;;;;;;;;5057522;28;20045;-71
2022/10/22 07:09:03;;;;;;;14.83;3.07;;;;;;;;;;5072375;28;20074;-72
2022/10/22 07:11:31;;;;;;;19.10;3.42;;;;;;;;;;5075364;28;20056;-72
2022/10/22 07:13:58;;;;;;;16.83;2.78;;;;;;;;;;5075505;28;20399;-72
2022/10/22 07:16:24;;;;;;;19.50;3.03;;;;;;;;;;5073383;28;20052;-72
2022/10/22 07:18:57;;;;;;;18.08;3.20;;;;;;;;;;5057597;28;20053;-73
2022/10/22 07:21:24;;;;;;;14.45;2.53;;;;;;;;;;5075168;28;20048;-72
2022/10/22 07:23:51;;;;;;;22.85;3.20;;;;;;;;;;5061238;28;20057;-73
2022/10/22 07:26:19;;;;;;;16.55;2.58;;;;;;;;;;5075248;28;20052;-74
2022/10/22 07:28:46;;;;;;;16.83;3.08;;;;;;;;;;5075315;28;20048;-74
2022/10/22 07:31:13;;;;;;;14.88;2.15;;;;;;;;;;5069394;28;20459;-76
2022/10/22 07:33:39;;;;;;;14.48;2.55;;;;;;;;;;5067175;28;20477;-72
2022/10/22 07:36:07;;;;;;;20.35;4.05;;;;;;;;;;5075275;28;20048;-72
2022/10/22 07:38:34;;;;;;;17.35;3.28;;;;;;;;;;5074708;28;20056;-76
2022/10/22 07:41:00;;;;;;;17.77;3.03;;;;;;;;;;5074701;28;20049;-70
2022/10/22 07:43:27;;;;;;;14.90;3.03;;;;;;;;;;5074965;28;20044;-70
2022/10/22 07:45:56;;;;;;;19.40;3.55;;;;;;;;;;5074762;28;20132;-70
2022/10/22 07:48:22;;;;;;;14.23;3.05;;;;;;;;;;5060545;28;20049;-70
2022/10/22 07:50:49;;;;;;;16.30;2.80;;;;;;;;;;5073720;28;20049;-70
2022/10/22 07:53:16;;;;;;;13.70;3.00;;;;;;;;;;5074839;28;20059;-71
2022/10/22 07:55:42;;;;;;;16.50;2.75;;;;;;;;;;5074752;28;20051;-71
2022/10/22 07:58:09;;;;;;;14.63;2.35;;;;;;;;;;5074442;28;20055;-71
2022/10/22 08:00:36;;;;;;;14.40;2.42;;;;;;;;;;5074543;28;20123;-71
2022/10/22 08:03:03;;;;;;;18.08;2.38;;;;;;;;;;5074479;28;20389;-71
2022/10/22 08:05:29;;;;;;;15.07;2.47;;;;;;;;;;5071756;28;20054;-72
2022/10/22 08:07:55;;;;;;;15.10;2.53;;;;;;;;;;5053993;28;20048;-70
2022/10/22 08:10:22;;;;;;;11.30;1.77;;;;;;;;;;5054087;28;20045;-72
2022/10/22 08:12:48;;;;;;;15.02;2.35;;;;;;;;;;5052425;28;20057;-69
2022/10/22 08:15:14;;;;;;;13.95;2.55;;;;;;;;;;5052361;28;20485;-71
2022/10/22 08:17:41;;;;;;;12.38;2.25;;;;;;;;;;5054064;28;20085;-70
2022/10/22 08:20:08;;;;;;;10.80;2.07;;;;;;;;;;5053118;28;20564;-70
2022/10/22 08:22:34;;;;;;;9.68;2.38;;;;;;;;;;5053497;28;20052;-69
2022/10/22 08:25:01;;;;;;;6.07;1.88;;;;;;;;;;5053514;28;20057;-69
2022/10/22 08:27:27;;;;;;;10.95;2.33;;;;;;;;;;5053761;28;20049;-69
2022/10/22 08:29:54;;;;;;;12.55;3.20;;;;;;;;;;5069558;28;20048;-69
2022/10/22 08:32:20;;;;;;;16.52;3.17;;;;;;;;;;5073858;28;20568;-69
2022/10/22 08:34:47;;;;;;;13.63;2.83;;;;;;;;;;5073908;28;20048;-69
2022/10/22 08:37:13;;;;;;;12.98;2.95;;;;;;;;;;5074075;28;20044;-70
2022/10/22 08:39:40;;;;;;;10.30;2.58;;;;;;;;;;5072375;28;20515;-69
2022/10/22 08:42:25;;;;;;;8.57;2.55;;;;;;;;;;5073684;28;20119;-70
2022/10/22 08:44:55;;;;;;;13.02;3.10;;;;;;;;;;5073548;28;20514;-72
2022/10/22 08:47:21;;;;;;;10.93;3.00;;;;;;;;;;5073983;28;20053;-70
2022/10/22 08:49:48;;;;;;;10.67;2.30;;;;;;;;;;5072049;28;20136;-71
2022/10/22 08:52:17;;;;;;;11.97;2.93;;;;;;;;;;5053426;28;20282;-71
2022/10/22 08:54:46;;;;;;;11.65;2.17;;;;;;;;;;5056115;28;20060;-70
2022/10/22 08:57:21;;;;;;;10.50;2.85;;;;;;;;;;5073412;28;20408;-70
2022/10/22 09:00:05;;;;;;;11.88;2.38;;;;;;;;;;5073681;28;20056;-70
2022/10/22 09:02:37;;;;;;;13.23;2.30;;;;;;;;;;5073198;28;20052;-71
2022/10/22 09:05:18;;;;;;;10.32;2.33;;;;;;;;;;5071814;28;20488;-71
2022/10/22 09:07:48;;;;;;;8.63;2.42;;;;;;;;;;5073455;28;20413;-70
2022/10/22 09:10:20;;;;;;;11.30;2.47;;;;;;;;;;5072964;28;20048;-70
2022/10/22 09:12:47;;;;;;;10.70;2.13;;;;;;;;;;5053859;28;20054;-70
2022/10/22 09:15:14;;;;;;;12.33;2.53;;;;;;;;;;5058805;28;20040;-70
2022/10/22 09:17:55;;;;;;;18.80;2.95;;;;;;;;;;5062940;28;20037;-70
2022/10/22 09:20:25;;;;;;;11.00;1.98;;;;;;;;;;5070668;28;20127;-70
2022/10/22 09:22:56;;;;;;;10.95;2.17;;;;;;;;;;5069569;28;20511;-70
2022/10/22 09:25:24;;;;;;;13.07;2.20;;;;;;;;;;5073052;28;20059;-70
2022/10/22 09:27:57;;;;;;;12.50;2.50;;;;;;;;;;5073096;28;20055;-70
2022/10/22 09:30:25;;;;;;;10.82;2.20;;;;;;;;;;5072887;28;20120;-70
2022/10/22 09:33:05;;;;;;;8.40;2.03;;;;;;;;;;5072863;28;20048;-69
2022/10/22 09:35:33;;;;;;;13.05;2.30;;;;;;;;;;5072753;28;20049;-74
2022/10/22 09:38:06;;;;;;;10.93;2.05;;;;;;;;;;5072722;28;20057;-70
2022/10/22 09:40:41;;;;;;;11.82;2.40;;;;;;;;;;5072585;28;20036;-70
2022/10/22 09:43:10;;;;;;;11.18;2.20;;;;;;;;;;5071119;28;20048;-69
2022/10/22 09:45:36;;;;;;;12.18;2.40;;;;;;;;;;5072682;28;20044;-70
2022/10/22 09:48:19;;;;;;;10.20;2.40;;;;;;;;;;5072576;28;20399;-70
2022/10/22 09:50:45;;;;;;;8.82;2.95;;;;;;;;;;5073042;28;20277;-70
2022/10/22 09:53:20;;;;;;;10.93;1.90;;;;;;;;;;5071433;28;20049;-70
2022/10/22 09:55:54;;;;;;;13.68;2.38;;;;;;;;;;5072131;28;20045;-70
2022/10/22 09:58:26;;;;;;;13.90;1.95;;;;;;;;;;5072291;28;20496;-70
2022/10/22 10:00:54;;;;;;;12.10;2.15;;;;;;;;;;5072114;28;20051;-70
2022/10/22 10:03:22;;;;;;;15.18;2.08;;;;;;;;;;5072134;28;20062;-70
2022/10/22 10:05:52;;;;;;;13.25;2.55;;;;;;;;;;5071989;28;20063;-70
2022/10/22 10:08:18;;;;;;;10.43;2.63;;;;;;;;;;5072273;28;20052;-70
2022/10/22 10:11:00;;;;;;;9.10;2.47;;;;;;;;;;5072102;28;20076;-70
2022/10/22 10:13:37;;;;;;;7.95;1.92;;;;;;;;;;5071979;28;20048;-70
2022/10/22 10:16:09;;;;;;;9.52;2.15;;;;;;;;;;5070577;28;20547;-70
2022/10/22 10:18:47;;;;;;;10.88;2.10;;;;;;;;;;5071911;28;20045;-70
2022/10/22 10:21:29;;;;;;;12.43;2.38;;;;;;;;;;5072158;28;20400;-71
2022/10/22 10:24:05;;;;;;;11.80;2.42;;;;;;;;;;5071972;28;20071;-70
2022/10/22 10:26:38;;;;;;;10.93;2.13;;;;;;;;;;5071788;28;20059;-70
2022/10/22 10:29:12;;;;;;;13.40;2.33;;;;;;;;;;5071902;28;20067;-70
2022/10/22 10:31:56;;;;;;;11.05;2.17;;;;;;;;;;5071736;28;20518;-70
2022/10/22 10:34:37;;;;;;;8.15;1.95;;;;;;;;;;5071717;28;20518;-70
2022/10/22 10:37:14;;;;;;;10.23;2.13;;;;;;;;;;5071890;28;20047;-70
2022/10/22 10:39:41;;;;;;;;;;;;;;;;;;5071998;28;20056;-70
2022/10/22 10:42:07;;;;;;;15.02;2.38;;;;;;;;;;5070333;28;19924;-70
2022/10/22 10:44:52;;;;;;;12.13;2.70;;;;;;;;;;5071163;28;20048;-70
2022/10/22 10:47:26;;;;;;;16.15;3.05;;;;;;;;;;5071651;28;20492;-70
2022/10/22 10:49:54;;;;;;;13.18;2.63;;;;;;;;;;5071603;28;20048;-70
2022/10/22 10:52:26;;;;;;;12.00;2.20;;;;;;;;;;5071660;28;20053;-70
2022/10/22 10:55:09;;;;;;;12.27;2.17;;;;;;;;;;5071528;28;20049;-70
2022/10/22 10:57:45;;;;;;;10.90;2.28;;;;;;;;;;5071479;28;20044;-70
2022/10/22 11:00:15;;;;;;;12.65;2.03;;;;;;;;;;5071401;28;20056;-70
2022/10/22 11:03:00;;;;;;;11.07;2.30;;;;;;;;;;5071319;28;20052;-70
2022/10/22 11:05:32;;;;;;;8.15;1.50;;;;;;;;;;5071469;28;20393;-70
2022/10/22 11:08:04;;;;;;;9.85;2.05;;;;;;;;;;5071504;28;20062;-71
2022/10/22 11:10:31;;;;;;;9.55;1.65;;;;;;;;;;5071358;28;20063;-71
2022/10/22 11:13:12;;;;;;;7.93;1.65;;;;;;;;;;5071614;28;20052;-70
2022/10/22 11:15:39;;;;;;;10.38;1.73;;;;;;;;;;5071376;28;20063;-70
2022/10/22 11:18:16;;;;;;;7.28;1.60;;;;;;;;;;5071530;28;20041;-70
2022/10/22 11:21:08;;;;;;;9.20;1.85;;;;;;;;;;5071353;28;20055;-70
2022/10/22 11:23:39;;;;;;;8.98;1.60;;;;;;;;;;5069255;28;20512;-70
2022/10/22 11:26:10;;;;;;;8.85;1.65;;;;;;;;;;5071574;28;20052;-70
2022/10/22 11:28:40;;;;;;;10.15;1.65;;;;;;;;;;5071319;28;20048;-70
2022/10/22 11:31:11;;;;;;;8.63;1.42;;;;;;;;;;5071352;28;20135;-70
2022/10/22 11:33:58;;;;;;;8.13;1.50;;;;;;;;;;5071404;28;20071;-70
2022/10/22 11:36:41;;;;;;;9.32;1.60;;;;;;;;;;5071073;28;20040;-70
2022/10/22 11:39:25;;;;;;;8.43;1.60;;;;;;;;;;5070940;28;20052;-70
2022/10/22 11:41:52;;;;;;;6.28;1.13;;;;;;;;;;5071114;28;20063;-70
2022/10/22 11:44:21;;;;;;;6.28;1.27;;;;;;;;;;5071209;28;20078;-70
2022/10/22 11:46:50;;;;;;;9.13;1.90;;;;;;;;;;5071354;28;20050;-70
2022/10/22 11:49:20;;;;;;;7.38;1.30;;;;;;;;;;5071508;28;20052;-70
2022/10/22 11:51:47;;;;;;;9.10;1.60;;;;;;;;;;5071501;28;20052;-70
2022/10/22 11:54:27;;;;;;;9.17;1.33;;;;;;;;;;5070771;28;20051;-70
2022/10/22 11:57:10;;;;;;;6.18;1.08;;;;;;;;;;5073627;28;20048;-70
2022/10/22 11:59:38;;;;;;;5.95;1.25;;;;;;;;;;5073590;28;20040;-70
2022/10/22 12:02:23;;;;;;;6.50;1.02;;;;;;;;;;5073262;28;20048;-70
2022/10/22 12:04:50;;;;;;;5.95;1.45;;;;;;;;;;5074787;28;20056;-71
2022/10/22 12:07:34;;;;;;;9.50;1.95;;;;;;;;;;5074506;28;20492;-70
2022/10/22 12:10:04;;;;;;;6.75;1.27;;;;;;;;;;5074509;28;20049;-71
2022/10/22 12:12:34;;;;;;;5.28;1.15;;;;;;;;;;5074302;28;20062;-70
2022/10/22 12:15:01;;;;;;;8.13;1.55;;;;;;;;;;5073154;28;20048;-71
2022/10/22 12:17:28;;;;;;;8.82;1.30;;;;;;;;;;5074616;28;20047;-71
2022/10/22 12:20:11;;;;;;;4.80;1.20;;;;;;;;;;5074355;28;20048;-71
2022/10/22 12:22:37;;;;;;;4.32;1.02;;;;;;;;;;5074039;28;20484;-70
2022/10/22 12:25:24;;;;;;;7.32;1.30;;;;;;;;;;5074299;28;20098;-71
2022/10/22 12:27:52;;;;;;;5.57;1.50;;;;;;;;;;5073929;28;20054;-71
2022/10/22 12:30:22;;;;;;;8.07;1.70;;;;;;;;;;5074233;28;20088;-71
2022/10/22 12:32:53;;;;;;;5.57;1.20;;;;;;;;;;5073919;28;20468;-71
2022/10/22 12:35:21;;;;;;;7.13;1.60;;;;;;;;;;5072518;28;20066;-71
2022/10/22 12:37:51;;;;;;;5.47;1.13;;;;;;;;;;5073834;28;20068;-70
2022/10/22 12:40:19;;;;;;;5.60;1.23;;;;;;;;;;5073794;28;20044;-71
2022/10/22 12:42:46;;;;;;;8.18;1.40;;;;;;;;;;5073945;28;20052;-70
2022/10/22 12:45:13;;;;;;;6.10;1.27;;;;;;;;;;5073668;28;20142;-70
2022/10/22 12:47:43;;;;;;;7.40;1.20;;;;;;;;;;5074157;28;20055;-70
2022/10/22 12:50:16;;;;;;;7.50;1.45;;;;;;;;;;5073634;28;20044;-70
2022/10/22 12:52:42;;;;;;;8.23;1.73;;;;;;;;;;5072730;28;20048;-70
2022/10/22 12:55:14;;;;;;;6.93;1.33;;;;;;;;;;5073849;28;20049;-70
2022/10/22 12:57:41;;;;;;;6.07;1.40;;;;;;;;;;5073824;28;20680;-70
2022/10/22 13:00:19;;;;;;;7.83;1.40;;;;;;;;;;5073466;28;20048;-70
2022/10/22 13:02:45;;;;;;;8.48;1.40;;;;;;;;;;5073394;28;20054;-70
2022/10/22 13:05:15;;;;;;;9.50;1.77;;;;;;;;;;5073526;28;20059;-70
2022/10/22 13:07:43;;;;;;;10.27;1.98;;;;;;;;;;5068954;28;20045;-70
2022/10/22 13:10:14;;;;;;;10.38;1.85;;;;;;;;;;5063402;28;20048;-70
2022/10/22 13:12:43;;;;;;;8.23;1.30;;;;;;;;;;5073083;28;20048;-70
2022/10/22 13:15:20;;;;;;;9.02;1.42;;;;;;;;;;5073027;28;20053;-70
2022/10/22 13:17:48;;;;;;;;;;;;;;;;;;5073934;28;20415;-70
2022/10/22 13:20:21;;;;;;;8.10;1.50;;;;;;;;;;5060779;28;20291;-70
2022/10/22 13:22:59;;;;;;;11.13;2.08;;;;;;;;;;5069962;28;20131;-71
2022/10/22 13:25:28;;;;;;;10.85;1.90;;;;;;;;;;5052522;28;20049;-71
2022/10/22 13:27:59;;;;;;;12.15;1.92;;;;;;;;;;5059573;28;20059;-70
2022/10/22 13:30:27;;;;;;;12.45;1.80;;;;;;;;;;5072220;28;20056;-70
2022/10/22 13:33:04;;;;;;;10.55;1.92;;;;;;;;;;5066339;28;20056;-70
2022/10/22 13:35:31;;;;;;;9.32;1.95;;;;;;;;;;5052174;28;20049;-70
2022/10/22 13:37:58;;;;;;;9.98;1.67;;;;;;;;;;5065486;28;20091;-70
2022/10/22 13:40:25;;;;;;;11.50;1.65;;;;;;;;;;5069046;28;20404;-69
2022/10/22 13:42:52;;;;;;;10.55;1.60;;;;;;;;;;5071559;28;20118;-70
2022/10/22 13:45:18;;;;;;;8.48;1.67;;;;;;;;;;5071787;28;20059;-70
2022/10/22 13:47:49;;;;;;;9.55;1.40;;;;;;;;;;5071615;28;20048;-70
2022/10/22 13:50:17;;;;;;;9.93;1.60;;;;;;;;;;5070386;28;20049;-69
2022/10/22 13:52:43;;;;;;;;;;;;;;;;;;5072288;28;20057;-69
2022/10/22 13:55:20;;;;;;;10.25;1.30;;;;;;;;;;5071668;28;20391;-69
2022/10/22 13:57:46;;;;;;;9.73;1.85;;;;;;;;;;5071612;28;20053;-70
2022/10/22 14:00:15;;;;;;;9.20;1.65;;;;;;;;;;5071901;28;20063;-69
2022/10/22 14:02:41;;;;;;;8.52;1.50;;;;;;;;;;5071463;28;20041;-70
2022/10/22 14:05:10;;;;;;;15.48;2.60;;;;;;;;;;5071407;28;20048;-70
2022/10/22 14:07:37;;;;;;;6.00;1.33;;;;;;;;;;5070238;28;20050;-69
2022/10/22 14:10:03;;;;;;;;;;;;;;;;;;5072129;28;20086;-69
2022/10/22 14:12:30;;;;;;;11.68;1.70;;;;;;;;;;5071254;28;20367;-70
2022/10/22 14:14:57;;;;;;;10.23;1.90;;;;;;;;;;5071006;28;20517;-70
2022/10/22 14:17:28;;;;;;;14.68;2.05;;;;;;;;;;5070462;28;20052;-70
2022/10/22 14:19:55;;;;;;;10.47;1.77;;;;;;;;;;5071106;28;20048;-70
2022/10/22 14:22:23;;;;;;;9.48;1.92;;;;;;;;;;5071428;28;20068;-70
2022/10/22 14:24:50;;;;;;;9.77;1.83;;;;;;;;;;5071173;28;20551;-70
2022/10/22 14:27:17;;;;;;;;;;;;;;;;;;5071534;28;20052;-69
2022/10/22 14:29:43;;;;;;;5.72;1.65;;;;;;;;;;5070935;28;20338;-69
2022/10/22 14:32:11;;;;;;;8.35;1.80;;;;;;;;;;5070738;28;20058;-70
2022/10/22 14:34:38;;;;;;;8.07;1.77;;;;;;;;;;5070021;28;20044;-69
2022/10/22 14:37:05;;;;;;;9.75;1.85;;;;;;;;;;5071149;28;20059;-70
2022/10/22 14:39:31;;;;;;;7.90;1.48;;;;;;;;;;5068977;28;20057;-71
2022/10/22 14:41:57;;;;;;;8.70;1.65;;;;;;;;;;5070870;28;20056;-69
2022/10/22 14:44:24;;;;;;;8.20;1.67;;;;;;;;;;5071156;28;20052;-70
2022/10/22 14:46:53;;;;;;;7.80;1.93;;;;;;;;;;5070580;28;20041;-70
2022/10/22 14:49:19;;;;;;;9.32;1.45;;;;;;;;;;5070959;28;20059;-69